createdAt,value
2022-10-19T00:00:47.509Z,11.70
2022-10-19T00:03:15.212Z,11.70
2022-10-19T00:05:43.124Z,11.70
2022-10-19T00:08:09.772Z,11.70
2022-10-19T00:10:39.353Z,11.80
2022-10-19T00:13:06.038Z,11.70
2022-10-19T00:15:32.685Z,11.70
2022-10-19T00:17:59.314Z,11.70
2022-10-19T00:20:25.926Z,11.80
2022-10-19T00:22:52.581Z,11.70
2022-10-19T00:25:19.231Z,11.80
2022-10-19T00:27:45.881Z,11.80
2022-10-19T00:30:12.571Z,11.80
2022-10-19T00:32:39.179Z,11.90
2022-10-19T00:35:06.095Z,11.90
2022-10-19T00:37:32.820Z,11.90
2022-10-19T00:39:59.473Z,11.90
2022-10-19T00:42:26.127Z,12.00
2022-10-19T00:44:52.789Z,12.00
2022-10-19T00:47:23.214Z,12.00
2022-10-19T00:49:49.990Z,12.00
2022-10-19T00:52:19.374Z,12.00
2022-10-19T00:54:47.056Z,11.90
2022-10-19T00:57:14.182Z,12.00
2022-10-19T00:59:41.829Z,12.10
2022-10-19T01:02:08.491Z,12.10
2022-10-19T01:04:37.813Z,12.10
2022-10-19T01:07:05.285Z,12.20
2022-10-19T01:09:31.906Z,12.20
2022-10-19T01:12:13.934Z,12.10
2022-10-19T01:14:43.392Z,12.20
2022-10-19T01:17:10.243Z,12.30
2022-10-19T01:19:36.825Z,12.30
2022-10-19T01:22:22.406Z,12.40
2022-10-19T01:25:07.608Z,12.40
2022-10-19T01:27:52.774Z,12.40
2022-10-19T01:30:28.793Z,12.40
2022-10-19T01:32:55.401Z,12.50
2022-10-19T01:35:40.612Z,12.50
2022-10-19T01:38:36.661Z,12.50
2022-10-19T01:41:09.480Z,12.50
2022-10-19T01:43:36.060Z,12.50
2022-10-19T01:46:22.986Z,12.50
2022-10-19T01:48:53.185Z,12.50
2022-10-19T01:51:23.395Z,12.50
2022-10-19T01:53:51.933Z,12.50
2022-10-19T01:56:20.143Z,12.50
2022-10-19T01:58:47.451Z,12.60
2022-10-19T02:01:17.270Z,12.50
2022-10-19T02:03:44.040Z,12.50
2022-10-19T02:06:11.635Z,12.50
2022-10-19T02:08:44.533Z,12.40
2022-10-19T02:11:11.140Z,12.40
2022-10-19T02:13:39.046Z,12.40
2022-10-19T02:16:07.821Z,12.40
2022-10-19T02:18:36.422Z,12.30
2022-10-19T02:21:04.178Z,12.30
2022-10-19T02:23:31.041Z,12.30
2022-10-19T02:25:58.305Z,12.40
2022-10-19T02:30:52.075Z,12.40
2022-10-19T02:33:18.720Z,12.40
2022-10-19T02:35:45.564Z,12.50
2022-10-19T02:38:15.586Z,12.60
2022-10-19T02:40:43.823Z,12.60
2022-10-19T02:43:12.963Z,12.70
2022-10-19T02:45:44.002Z,12.70
2022-10-19T02:48:21.685Z,12.80
2022-10-19T02:50:48.380Z,12.80
2022-10-19T02:53:15.758Z,12.80
2022-10-19T02:55:42.530Z,12.80
2022-10-19T02:58:09.240Z,12.80
2022-10-19T03:00:36.227Z,12.80
2022-10-19T03:03:03.169Z,12.70
2022-10-19T03:05:30.026Z,12.80
2022-10-19T03:07:56.682Z,12.70
2022-10-19T03:10:23.344Z,12.70
2022-10-19T03:12:49.986Z,12.60
2022-10-19T03:15:18.059Z,12.60
2022-10-19T03:17:44.727Z,12.60
2022-10-19T03:20:11.868Z,12.60
2022-10-19T03:22:38.494Z,12.60
2022-10-19T03:25:05.347Z,12.50
2022-10-19T03:27:32.326Z,12.60
2022-10-19T03:29:59.219Z,12.50
2022-10-19T03:32:25.893Z,12.50
2022-10-19T03:34:52.519Z,12.50
2022-10-19T03:37:19.305Z,12.50
2022-10-19T03:39:45.934Z,12.40
2022-10-19T03:42:12.573Z,12.30
2022-10-19T03:44:39.229Z,12.30
2022-10-19T03:47:05.915Z,12.20
2022-10-19T03:49:34.605Z,12.30
2022-10-19T03:52:03.517Z,12.40
2022-10-19T03:54:30.173Z,12.40
2022-10-19T03:56:56.781Z,12.40
2022-10-19T03:59:24.377Z,12.40
2022-10-19T04:01:51.055Z,12.40
2022-10-19T04:04:18.504Z,12.40
2022-10-19T04:06:46.249Z,12.40
2022-10-19T04:09:14.291Z,12.30
2022-10-19T04:11:41.345Z,12.30
2022-10-19T04:16:34.948Z,12.30
2022-10-19T04:19:01.684Z,12.30
2022-10-19T04:21:30.205Z,12.30
2022-10-19T04:24:00.675Z,12.30
2022-10-19T04:26:27.611Z,12.30
2022-10-19T04:28:54.490Z,12.30
2022-10-19T04:31:21.232Z,12.30
2022-10-19T04:33:47.868Z,12.20
2022-10-19T04:36:14.542Z,12.20
2022-10-19T04:38:41.231Z,12.10
2022-10-19T04:41:09.250Z,12.10
2022-10-19T04:43:36.098Z,12.20
2022-10-19T04:46:13.915Z,12.20
2022-10-19T04:48:40.945Z,12.20
2022-10-19T04:51:07.614Z,12.20
2022-10-19T04:53:34.900Z,12.20
2022-10-19T04:56:04.507Z,12.20
2022-10-19T04:58:31.154Z,12.30
2022-10-19T05:00:57.833Z,12.30
2022-10-19T05:03:24.569Z,12.30
2022-10-19T05:05:51.188Z,12.30
2022-10-19T05:08:17.802Z,12.30
2022-10-19T05:10:47.621Z,12.30
2022-10-19T05:13:14.574Z,12.40
2022-10-19T05:15:41.221Z,12.30
2022-10-19T05:18:07.906Z,12.30
2022-10-19T05:20:34.514Z,12.30
2022-10-19T05:23:06.143Z,12.30
2022-10-19T05:25:34.056Z,12.40
2022-10-19T05:28:00.708Z,12.40
2022-10-19T05:30:27.342Z,12.40
2022-10-19T05:32:54.055Z,12.40
2022-10-19T05:35:22.665Z,12.50
2022-10-19T05:37:53.719Z,12.50
2022-10-19T05:40:20.395Z,12.50
2022-10-19T05:42:46.979Z,12.50
2022-10-19T05:45:13.714Z,12.50
2022-10-19T05:47:40.436Z,12.60
2022-10-19T05:50:07.230Z,12.60
2022-10-19T05:52:33.893Z,12.60
2022-10-19T05:55:00.498Z,12.70
2022-10-19T05:57:27.176Z,12.70
2022-10-19T05:59:56.728Z,12.70
2022-10-19T06:02:23.718Z,12.80
2022-10-19T06:04:50.461Z,12.80
2022-10-19T06:07:17.244Z,12.90
2022-10-19T06:09:44.039Z,12.90
2022-10-19T06:12:10.825Z,13.00
2022-10-19T06:14:37.667Z,13.00
2022-10-19T06:17:04.371Z,13.10
2022-10-19T06:19:31.008Z,13.10
2022-10-19T06:21:57.609Z,13.10
2022-10-19T06:24:24.305Z,13.20
2022-10-19T06:26:50.963Z,13.20
2022-10-19T06:29:17.555Z,13.20
2022-10-19T06:31:45.659Z,13.30
2022-10-19T06:34:12.430Z,13.30
2022-10-19T06:36:39.108Z,13.40
2022-10-19T06:39:05.812Z,13.40
2022-10-19T06:41:32.822Z,13.40
2022-10-19T06:43:59.704Z,13.50
2022-10-19T06:46:27.157Z,13.50
2022-10-19T06:48:55.167Z,13.60
2022-10-19T06:51:22.040Z,13.60
2022-10-19T06:53:51.704Z,13.60
2022-10-19T06:56:21.103Z,13.70
2022-10-19T06:58:48.042Z,13.80
2022-10-19T07:01:14.827Z,13.80
2022-10-19T07:03:43.170Z,13.90
2022-10-19T07:06:11.243Z,13.90
2022-10-19T07:08:38.657Z,14.00
2022-10-19T07:11:07.062Z,14.00
2022-10-19T07:13:34.033Z,14.00
2022-10-19T07:16:03.590Z,14.10
2022-10-19T07:18:30.294Z,14.20
2022-10-19T07:21:01.419Z,14.20
2022-10-19T07:23:29.397Z,14.30
2022-10-19T07:26:01.227Z,14.30
2022-10-19T07:28:28.823Z,14.40
2022-10-19T07:30:55.825Z,14.40
2022-10-19T07:33:22.606Z,14.50
2022-10-19T07:35:49.458Z,14.60
2022-10-19T07:38:16.156Z,14.70
2022-10-19T07:40:46.355Z,14.80
2022-10-19T07:43:14.222Z,14.90
2022-10-19T07:45:40.945Z,14.90
2022-10-19T07:48:07.632Z,15.00
2022-10-19T07:50:34.458Z,15.10
2022-10-19T07:53:03.760Z,15.10
2022-10-19T07:55:30.564Z,15.20
2022-10-19T07:58:01.511Z,15.10
2022-10-19T08:00:28.609Z,15.20
2022-10-19T08:03:19.231Z,15.20
2022-10-19T08:05:42.239Z,15.30
2022-10-19T08:08:09.006Z,15.50
2022-10-19T08:10:35.650Z,15.50
2022-10-19T08:13:02.366Z,15.60
2022-10-19T08:15:29.328Z,15.70
2022-10-19T08:17:56.104Z,15.90
2022-10-19T08:20:22.797Z,15.90
2022-10-19T08:22:49.666Z,16.10
2022-10-19T08:25:16.465Z,16.10
2022-10-19T08:27:43.259Z,16.20
2022-10-19T08:30:10.347Z,16.30
2022-10-19T08:32:37.224Z,16.20
2022-10-19T08:35:07.225Z,16.20
2022-10-19T08:37:45.344Z,16.30
2022-10-19T08:40:20.882Z,16.50
2022-10-19T08:43:06.493Z,16.40
2022-10-19T08:45:38.967Z,16.40
2022-10-19T08:48:05.649Z,16.40
2022-10-19T08:50:32.270Z,16.40
2022-10-19T08:53:01.678Z,16.30
2022-10-19T08:55:34.049Z,16.20
2022-10-19T08:58:10.366Z,16.20
2022-10-19T09:00:37.174Z,16.20
2022-10-19T09:03:22.994Z,16.30
2022-10-19T09:06:09.036Z,16.30
2022-10-19T09:08:37.727Z,16.40
2022-10-19T09:11:04.914Z,16.40
2022-10-19T09:13:41.415Z,16.50
2022-10-19T09:16:18.520Z,16.70
2022-10-19T09:18:46.988Z,16.80
2022-10-19T09:21:22.680Z,16.80
2022-10-19T09:23:55.675Z,16.70
2022-10-19T09:26:25.052Z,16.80
2022-10-19T09:28:54.821Z,17.00
2022-10-19T09:31:31.479Z,17.00
2022-10-19T09:34:03.470Z,17.00
2022-10-19T09:36:49.974Z,16.90
2022-10-19T09:39:17.889Z,16.80
2022-10-19T09:41:50.361Z,17.00
2022-10-19T09:44:17.354Z,17.20
2022-10-19T09:46:52.039Z,17.50
2022-10-19T09:49:19.915Z,17.40
2022-10-19T09:51:50.581Z,17.50
2022-10-19T09:54:25.769Z,17.40
2022-10-19T09:56:53.169Z,17.20
2022-10-19T09:59:24.365Z,17.20
2022-10-19T10:04:36.581Z,17.30
2022-10-19T10:07:03.671Z,17.30
2022-10-19T10:09:30.599Z,17.30
2022-10-19T10:11:58.871Z,17.50
2022-10-19T10:14:40.159Z,17.30
2022-10-19T10:17:08.014Z,17.30
2022-10-19T10:19:36.225Z,17.20
2022-10-19T10:22:04.415Z,17.30
2022-10-19T10:24:32.725Z,17.10
2022-10-19T10:27:19.457Z,17.10
2022-10-19T10:29:53.957Z,17.10
2022-10-19T10:32:21.503Z,17.00
2022-10-19T10:35:05.176Z,16.90
2022-10-19T10:37:32.269Z,17.00
2022-10-19T10:40:03.383Z,17.10
2022-10-19T10:42:36.358Z,17.00
2022-10-19T10:45:03.867Z,17.00
2022-10-19T10:47:30.954Z,17.00
2022-10-19T10:49:59.112Z,16.90
2022-10-19T10:52:27.785Z,16.80
2022-10-19T10:55:17.667Z,16.80
2022-10-19T10:57:46.891Z,16.90
2022-10-19T11:00:14.221Z,17.20
2022-10-19T11:02:59.525Z,17.50
2022-10-19T11:05:31.696Z,17.40
2022-10-19T11:08:15.243Z,17.50
2022-10-19T11:10:51.308Z,17.60
2022-10-19T11:13:30.432Z,17.80
2022-10-19T11:16:00.110Z,17.80
2022-10-19T11:18:35.998Z,17.80
2022-10-19T11:21:13.330Z,17.70
2022-10-19T11:23:45.980Z,17.70
2022-10-19T11:26:31.545Z,17.70
2022-10-19T11:29:16.991Z,17.60
2022-10-19T11:31:54.139Z,17.50
2022-10-19T11:34:40.848Z,17.70
2022-10-19T11:37:15.755Z,17.60
2022-10-19T11:39:56.566Z,17.60
2022-10-19T11:42:45.246Z,17.90
2022-10-19T11:45:21.176Z,18.00
2022-10-19T11:47:59.976Z,17.80
2022-10-19T11:50:34.802Z,17.70
2022-10-19T11:53:24.463Z,17.40
2022-10-19T11:55:54.188Z,17.50
2022-10-19T11:58:38.183Z,17.50
2022-10-19T12:01:20.739Z,17.70
2022-10-19T12:03:53.315Z,17.70
2022-10-19T12:06:20.047Z,17.60
2022-10-19T12:08:55.391Z,17.70
2022-10-19T12:11:28.590Z,17.60
2022-10-19T12:14:04.552Z,17.80
2022-10-19T12:16:40.267Z,17.90
2022-10-19T12:19:09.204Z,17.80
2022-10-19T12:21:45.409Z,17.80
2022-10-19T12:24:20.180Z,17.90
2022-10-19T12:26:47.635Z,18.10
2022-10-19T12:29:19.569Z,17.80
2022-10-19T12:31:46.893Z,17.70
2022-10-19T12:34:13.475Z,17.70
2022-10-19T12:36:46.348Z,17.60
2022-10-19T12:39:25.068Z,17.70
2022-10-19T12:42:10.527Z,17.70
2022-10-19T12:44:58.581Z,17.80
2022-10-19T12:47:25.698Z,17.70
2022-10-19T12:49:53.117Z,17.80
2022-10-19T12:52:38.402Z,17.90
2022-10-19T12:55:10.906Z,17.90
2022-10-19T12:57:39.396Z,18.00
2022-10-19T13:00:18.907Z,18.20
2022-10-19T13:02:46.436Z,18.20
2022-10-19T13:05:23.039Z,18.40
2022-10-19T13:10:24.578Z,18.40
2022-10-19T13:12:51.912Z,18.30
2022-10-19T13:15:33.967Z,18.30
2022-10-19T13:18:01.230Z,18.20
2022-10-19T13:20:28.640Z,18.40
2022-10-19T13:23:01.484Z,18.60
2022-10-19T13:25:29.201Z,18.80
2022-10-19T13:28:09.431Z,18.90
2022-10-19T13:30:38.857Z,19.00
2022-10-19T13:33:31.449Z,18.80
2022-10-19T13:36:01.027Z,18.90
2022-10-19T13:38:37.622Z,18.80
2022-10-19T13:41:10.422Z,18.60
2022-10-19T13:43:50.177Z,18.70
2022-10-19T13:46:20.087Z,18.60
2022-10-19T13:48:49.841Z,18.80
2022-10-19T13:51:29.701Z,18.70
2022-10-19T13:54:15.163Z,18.70
2022-10-19T13:56:41.887Z,18.80
2022-10-19T13:59:21.584Z,18.80
2022-10-19T14:02:09.316Z,18.80
2022-10-19T14:04:36.169Z,18.60
2022-10-19T14:07:14.359Z,18.40
2022-10-19T14:10:04.242Z,18.50
2022-10-19T14:12:34.133Z,18.40
2022-10-19T14:15:01.040Z,18.20
2022-10-19T14:17:30.329Z,18.10
2022-10-19T14:19:58.158Z,18.10
2022-10-19T14:22:33.708Z,18.10
2022-10-19T14:25:20.506Z,18.00
2022-10-19T14:27:48.185Z,17.90
2022-10-19T14:30:22.662Z,18.10
2022-10-19T14:32:49.899Z,18.00
2022-10-19T14:35:24.391Z,17.90
2022-10-19T14:37:51.268Z,17.80
2022-10-19T14:40:28.104Z,17.80
2022-10-19T14:42:55.455Z,17.70
2022-10-19T14:45:26.886Z,17.70
2022-10-19T14:48:03.967Z,17.70
2022-10-19T14:53:23.729Z,17.70
2022-10-19T14:55:52.285Z,17.70
2022-10-19T14:58:20.232Z,17.60
2022-10-19T15:00:47.931Z,17.50
2022-10-19T15:03:20.653Z,17.50
2022-10-19T15:05:49.194Z,17.40
2022-10-19T15:08:21.872Z,17.40
2022-10-19T15:10:49.227Z,17.40
2022-10-19T15:13:26.845Z,17.20
2022-10-19T15:15:54.113Z,17.20
2022-10-19T15:18:44.036Z,17.10
2022-10-19T15:21:14.261Z,17.20
2022-10-19T15:23:42.449Z,17.20
2022-10-19T15:26:20.027Z,17.20
2022-10-19T15:28:47.012Z,17.00
2022-10-19T15:31:15.398Z,16.90
2022-10-19T15:33:44.423Z,16.90
2022-10-19T15:36:17.843Z,16.90
2022-10-19T15:38:45.545Z,16.60
2022-10-19T15:41:16.923Z,16.60
2022-10-19T15:43:45.682Z,16.60
2022-10-19T15:46:12.291Z,16.60
2022-10-19T15:48:41.777Z,16.50
2022-10-19T15:51:23.717Z,16.40
2022-10-19T15:53:57.779Z,16.40
2022-10-19T15:56:25.325Z,16.40
2022-10-19T15:58:52.665Z,16.40
2022-10-19T16:01:20.379Z,16.40
2022-10-19T16:03:47.047Z,16.40
2022-10-19T16:06:13.899Z,16.40
2022-10-19T16:08:40.572Z,16.30
2022-10-19T16:11:13.709Z,16.30
2022-10-19T16:13:40.590Z,16.30
2022-10-19T16:16:11.186Z,16.10
2022-10-19T16:18:38.851Z,16.10
2022-10-19T16:21:05.713Z,16.10
2022-10-19T16:23:37.845Z,16.00
2022-10-19T16:26:07.899Z,15.90
2022-10-19T16:28:34.712Z,15.90
2022-10-19T16:31:01.533Z,15.90
2022-10-19T16:33:28.502Z,15.90
2022-10-19T16:35:55.146Z,15.90
2022-10-19T16:38:21.874Z,15.90
2022-10-19T16:40:48.708Z,15.90
2022-10-19T16:43:15.432Z,15.90
2022-10-19T16:45:42.636Z,15.90
2022-10-19T16:48:11.719Z,15.80
2022-10-19T16:50:39.048Z,15.70
2022-10-19T16:53:10.172Z,15.70
2022-10-19T16:55:37.477Z,15.70
2022-10-19T16:58:04.222Z,15.70
2022-10-19T17:00:31.043Z,15.60
2022-10-19T17:02:57.792Z,15.70
2022-10-19T17:05:24.656Z,15.50
2022-10-19T17:07:51.513Z,15.50
2022-10-19T17:10:18.362Z,15.50
2022-10-19T17:12:45.193Z,15.50
2022-10-19T17:18:00.409Z,15.30
2022-10-19T17:20:27.359Z,15.20
2022-10-19T17:22:54.343Z,15.10
2022-10-19T17:25:21.142Z,15.10
2022-10-19T17:27:51.465Z,15.00
2022-10-19T17:30:18.591Z,15.00
2022-10-19T17:32:45.461Z,14.90
2022-10-19T17:35:12.263Z,14.80
2022-10-19T17:37:39.042Z,14.90
2022-10-19T17:40:06.214Z,14.80
2022-10-19T17:42:36.691Z,14.70
2022-10-19T17:45:03.945Z,14.70
2022-10-19T17:47:30.801Z,14.70
2022-10-19T17:49:57.590Z,14.70
2022-10-19T17:52:24.306Z,14.60
2022-10-19T17:55:11.170Z,14.50
2022-10-19T17:57:38.191Z,14.50
2022-10-19T18:00:06.166Z,14.40
2022-10-19T18:02:33.369Z,14.40
2022-10-19T18:05:00.205Z,14.30
2022-10-19T18:07:26.940Z,14.30
2022-10-19T18:09:53.761Z,14.20
2022-10-19T18:12:20.624Z,14.10
2022-10-19T18:14:47.500Z,14.10
2022-10-19T18:17:14.165Z,14.00
2022-10-19T18:19:41.050Z,13.90
2022-10-19T18:22:07.835Z,13.80
2022-10-19T18:24:34.850Z,13.70
2022-10-19T18:27:01.635Z,13.70
2022-10-19T18:29:28.351Z,13.60
2022-10-19T18:31:55.448Z,13.50
2022-10-19T18:34:24.064Z,13.50
2022-10-19T18:36:51.334Z,13.40
2022-10-19T18:39:18.659Z,13.30
2022-10-19T18:41:45.494Z,13.30
2022-10-19T18:44:13.817Z,13.30
2022-10-19T18:46:40.762Z,13.20
2022-10-19T18:49:08.507Z,13.10
2022-10-19T18:51:35.976Z,13.10
2022-10-19T18:54:05.448Z,13.00
2022-10-19T18:56:33.594Z,13.00
2022-10-19T18:59:03.177Z,12.90
2022-10-19T19:01:30.897Z,12.90
2022-10-19T19:03:58.444Z,12.80
2022-10-19T19:06:26.704Z,12.80
2022-10-19T19:08:57.334Z,12.90
2022-10-19T19:11:25.694Z,12.90
2022-10-19T19:13:56.595Z,12.90
2022-10-19T19:16:24.020Z,12.80
2022-10-19T19:18:50.788Z,12.70
2022-10-19T19:21:19.003Z,12.70
2022-10-19T19:23:46.124Z,12.70
2022-10-19T19:26:13.110Z,12.60
2022-10-19T19:28:41.800Z,12.60
2022-10-19T19:31:10.729Z,12.60
2022-10-19T19:33:38.214Z,12.60
2022-10-19T19:36:06.062Z,12.60
2022-10-19T19:38:33.138Z,12.60
2022-10-19T19:41:03.090Z,12.60
2022-10-19T19:43:31.213Z,12.70
2022-10-19T19:46:00.922Z,12.90
2022-10-19T19:48:30.290Z,13.00
2022-10-19T19:50:57.336Z,13.10
2022-10-19T19:53:24.181Z,13.10
2022-10-19T19:55:50.963Z,13.20
2022-10-19T19:58:18.867Z,13.20
2022-10-19T20:00:46.199Z,13.30
2022-10-19T20:03:13.630Z,13.30
2022-10-19T20:05:40.825Z,13.40
2022-10-19T20:08:07.993Z,13.40
2022-10-19T20:10:38.560Z,13.50
2022-10-19T20:13:05.363Z,13.50
2022-10-19T20:15:32.175Z,13.50
2022-10-19T20:17:59.084Z,13.50
2022-10-19T20:20:25.743Z,13.60
2022-10-19T20:22:52.373Z,13.60
2022-10-19T20:25:19.295Z,13.50
2022-10-19T20:27:46.043Z,13.60
2022-10-19T20:30:12.713Z,13.60
2022-10-19T20:32:39.382Z,13.60
2022-10-19T20:35:07.428Z,13.50
2022-10-19T20:37:34.203Z,13.50
2022-10-19T20:40:03.391Z,13.50
2022-10-19T20:42:34.201Z,13.50
2022-10-19T20:45:01.117Z,13.30
2022-10-19T20:47:27.939Z,13.30
2022-10-19T20:49:54.713Z,13.30
2022-10-19T20:52:21.717Z,13.30
2022-10-19T20:54:48.569Z,13.30
2022-10-19T20:57:15.350Z,13.30
2022-10-19T20:59:43.927Z,13.30
2022-10-19T21:02:10.995Z,13.20
2022-10-19T21:04:37.740Z,13.20
2022-10-19T21:07:05.100Z,13.10
2022-10-19T21:09:32.114Z,13.00
2022-10-19T21:11:58.936Z,13.00
2022-10-19T21:14:28.570Z,13.00
2022-10-19T21:16:56.854Z,13.00
2022-10-19T21:19:25.359Z,13.00
2022-10-19T21:21:55.433Z,13.00
2022-10-19T21:24:23.770Z,13.00
2022-10-19T21:29:18.540Z,13.00
2022-10-19T21:31:48.801Z,13.00
2022-10-19T21:34:17.494Z,12.90
2022-10-19T21:36:44.241Z,12.90
2022-10-19T21:39:10.940Z,12.90
2022-10-19T21:41:37.554Z,12.80
2022-10-19T21:44:04.228Z,12.80
2022-10-19T21:46:31.150Z,12.70
2022-10-19T21:48:58.013Z,12.70
2022-10-19T21:51:36.365Z,12.70
2022-10-19T21:54:04.039Z,12.60
2022-10-19T21:56:31.415Z,12.60
2022-10-19T21:58:58.206Z,12.50
2022-10-19T22:01:26.157Z,12.50
2022-10-19T22:04:03.358Z,12.40
2022-10-19T22:06:30.962Z,12.40
2022-10-19T22:08:58.212Z,12.30
2022-10-19T22:11:25.487Z,12.10
2022-10-19T22:13:55.741Z,12.10
2022-10-19T22:16:22.465Z,12.00
2022-10-19T22:18:49.241Z,12.10
2022-10-19T22:21:17.318Z,12.00
2022-10-19T22:23:44.948Z,12.10
2022-10-19T22:26:12.816Z,12.10
2022-10-19T22:28:39.531Z,12.00
2022-10-19T22:31:06.267Z,12.00
2022-10-19T22:33:34.084Z,12.00
2022-10-19T22:36:01.371Z,12.00
2022-10-19T22:38:28.484Z,12.10
2022-10-19T22:40:55.146Z,12.10
2022-10-19T22:43:21.771Z,12.10
2022-10-19T22:45:51.298Z,12.20
2022-10-19T22:48:18.609Z,12.20
2022-10-19T22:50:45.398Z,12.20
2022-10-19T22:53:12.123Z,12.00
2022-10-19T22:55:38.915Z,12.00
2022-10-19T22:58:06.743Z,12.10
2022-10-19T23:00:33.496Z,12.10
2022-10-19T23:03:00.209Z,12.10
2022-10-19T23:05:26.856Z,12.00
2022-10-19T23:07:53.509Z,12.00
2022-10-19T23:10:20.147Z,11.90
2022-10-19T23:12:50.567Z,11.80
2022-10-19T23:15:17.825Z,11.80
2022-10-19T23:17:44.527Z,11.70
2022-10-19T23:20:11.561Z,11.60
2022-10-19T23:22:38.291Z,11.50
2022-10-19T23:25:05.182Z,11.40
2022-10-19T23:27:31.812Z,11.30
2022-10-19T23:29:59.254Z,11.30
2022-10-19T23:32:25.868Z,11.10
2022-10-19T23:34:52.578Z,11.10
2022-10-19T23:37:19.204Z,11.10
2022-10-19T23:39:45.882Z,11.00
2022-10-19T23:42:12.537Z,11.00
2022-10-19T23:44:39.208Z,10.80
2022-10-19T23:47:05.868Z,10.80
2022-10-19T23:49:32.424Z,10.80
2022-10-19T23:51:59.073Z,10.70
2022-10-19T23:54:25.710Z,10.70
2022-10-19T23:56:52.374Z,10.70
2022-10-19T23:59:18.989Z,10.70
